Time;durP1;ratioP1;P1;durP2;ratioP2;P2;SDS_P1;SDS_P2;PMS_P1;PMS_P2;Temp;Humidity;BMP_temperature;BMP_pressure;BME280_temperature;BME280_humidity;BME280_pressure;Samples;Min_cycle;Max_cycle;Signal;HPM_P1;HPM_P2
2022/04/18 00:02:09;;;;;;;3.08;2.35;;;;;;;;;;4928740;29;20038;-80
2022/04/18 00:04:34;;;;;;;1.60;1.27;;;;;;;;;;4931014;29;20035;-82
2022/04/18 00:07:03;;;;;;;2.35;1.50;;;;;;;;;;4935077;29;20161;-80
2022/04/18 00:09:34;;;;;;;5.65;1.33;;;;;;;;;;4936601;29;20039;-79
2022/04/18 00:12:02;;;;;;;2.35;1.00;;;;;;;;;;4920287;29;20024;-79
2022/04/18 00:14:30;;;;;;;2.30;1.98;;;;;;;;;;4935854;29;20047;-80
2022/04/18 00:16:56;;;;;;;5.05;1.50;;;;;;;;;;4936303;29;20048;-80
2022/04/18 00:19:29;;;;;;;1.58;1.05;;;;;;;;;;4928716;29;20087;-81
2022/04/18 00:21:54;;;;;;;3.67;2.03;;;;;;;;;;4936074;29;20043;-79
2022/04/18 00:24:22;;;;;;;4.28;1.27;;;;;;;;;;4937097;29;20083;-80
2022/04/18 00:26:50;;;;;;;3.10;1.23;;;;;;;;;;4935288;29;20032;-81
2022/04/18 00:29:21;;;;;;;1.52;0.80;;;;;;;;;;4936510;29;20042;-79
2022/04/18 00:31:46;;;;;;;0.60;0.60;;;;;;;;;;4933000;29;20032;-80
2022/04/18 00:34:11;;;;;;;3.95;1.92;;;;;;;;;;4935920;29;20047;-80
2022/04/18 00:36:39;;;;;;;1.13;1.10;;;;;;;;;;4936379;29;20039;-82
2022/04/18 00:39:04;;;;;;;1.85;1.10;;;;;;;;;;4936793;29;20039;-81
2022/04/18 00:41:30;;;;;;;6.03;1.90;;;;;;;;;;4932728;29;20032;-81
2022/04/18 00:43:55;;;;;;;2.03;1.77;;;;;;;;;;4931870;29;20027;-82
2022/04/18 00:46:24;;;;;;;3.47;1.75;;;;;;;;;;4936906;29;20042;-79
2022/04/18 00:48:49;;;;;;;1.73;1.35;;;;;;;;;;4935681;29;20038;-80
2022/04/18 00:51:17;;;;;;;1.20;1.10;;;;;;;;;;4937020;29;20019;-79
2022/04/18 00:53:43;;;;;;;0.70;0.60;;;;;;;;;;4933412;29;20031;-75
2022/04/18 00:56:11;;;;;;;2.13;1.92;;;;;;;;;;4928258;29;20191;-75
2022/04/18 00:58:38;;;;;;;3.25;1.33;;;;;;;;;;4922330;29;20035;-76
2022/04/18 01:01:06;;;;;;;2.25;0.73;;;;;;;;;;4927400;29;20462;-76
2022/04/18 01:03:34;;;;;;;0.82;0.82;;;;;;;;;;4934659;29;20023;-75
2022/04/18 01:06:00;;;;;;;2.28;1.80;;;;;;;;;;4935238;29;20064;-75
2022/04/18 01:08:28;;;;;;;1.13;0.85;;;;;;;;;;4919858;29;20337;-76
2022/04/18 01:10:58;;;;;;;2.42;1.10;;;;;;;;;;4935552;29;20023;-76
2022/04/18 01:13:23;;;;;;;0.30;0.30;;;;;;;;;;4936406;29;20039;-75
2022/04/18 01:15:55;;;;;;;1.70;1.10;;;;;;;;;;4935857;29;20042;-76
2022/04/18 01:18:21;;;;;;;1.13;1.13;;;;;;;;;;4934485;29;20035;-76
2022/04/18 01:20:47;;;;;;;0.88;0.88;;;;;;;;;;4935597;29;20035;-76
2022/04/18 01:23:18;;;;;;;3.25;0.80;;;;;;;;;;4936618;29;20032;-77
2022/04/18 01:31:16;;;;;;;1.33;1.23;;;;;;;;;;4930323;29;20039;-76
2022/04/18 01:33:43;;;;;;;0.43;0.43;;;;;;;;;;4926649;29;20102;-76
2022/04/18 01:36:08;;;;;;;0.80;0.57;;;;;;;;;;4924388;29;20036;-76
2022/04/18 01:38:34;;;;;;;0.40;0.40;;;;;;;;;;4938697;29;20509;-77
2022/04/18 01:40:59;;;;;;;0.28;0.17;;;;;;;;;;4938683;29;20185;-77
2022/04/18 01:43:24;;;;;;;0.65;0.43;;;;;;;;;;4938233;29;20350;-76
2022/04/18 01:45:50;;;;;;;1.05;0.77;;;;;;;;;;4929357;29;20030;-77
2022/04/18 01:48:17;;;;;;;1.85;1.55;;;;;;;;;;4935901;29;20111;-77
2022/04/18 01:50:43;;;;;;;0.10;0.10;;;;;;;;;;4936764;29;20045;-77
2022/04/18 01:53:08;;;;;;;0.30;0.30;;;;;;;;;;4939138;29;20067;-77
2022/04/18 01:55:34;;;;;;;0.60;0.45;;;;;;;;;;4938086;29;20024;-76
2022/04/18 01:58:05;;;;;;;0.30;0.30;;;;;;;;;;4938922;29;20044;-77
2022/04/18 02:00:33;;;;;;;0.20;0.20;;;;;;;;;;4936132;29;20417;-77
2022/04/18 02:02:58;;;;;;;0.35;0.10;;;;;;;;;;4936531;29;20027;-77
2022/04/18 02:05:24;;;;;;;0.50;0.50;;;;;;;;;;4937264;29;20393;-78
2022/04/18 02:07:49;;;;;;;0.20;0.20;;;;;;;;;;4938523;29;20072;-77
2022/04/18 02:10:15;;;;;;;0.28;0.28;;;;;;;;;;4938573;29;20028;-77
2022/04/18 02:12:42;;;;;;;0.20;0.20;;;;;;;;;;4938061;29;20035;-78
2022/04/18 02:15:09;;;;;;;0.17;0.15;;;;;;;;;;4922359;29;20114;-77
2022/04/18 02:17:34;;;;;;;0.85;0.20;;;;;;;;;;4934195;29;20038;-77
2022/04/18 02:20:00;;;;;;;0.25;0.20;;;;;;;;;;4937140;29;20027;-77
2022/04/18 02:22:25;;;;;;;0.03;0.03;;;;;;;;;;4938327;29;20035;-77
2022/04/18 02:24:55;;;;;;;0.30;0.30;;;;;;;;;;4938894;29;20024;-77
2022/04/18 02:27:21;;;;;;;0.17;0.17;;;;;;;;;;4938742;29;20108;-77
2022/04/18 02:29:46;;;;;;;0.32;0.32;;;;;;;;;;4938269;29;20067;-77
2022/04/18 02:34:58;;;;;;;0.82;0.50;;;;;;;;;;4919912;29;20038;-77
2022/04/18 02:37:23;;;;;;;0.10;0.10;;;;;;;;;;4936020;29;20031;-77
2022/04/18 02:39:48;;;;;;;0.32;0.10;;;;;;;;;;4937115;29;20042;-77
2022/04/18 02:42:18;;;;;;;1.08;0.85;;;;;;;;;;4937018;29;20031;-77
2022/04/18 02:44:46;;;;;;;4.72;0.68;;;;;;;;;;4938563;29;20042;-77
2022/04/18 02:47:12;;;;;;;0.90;0.38;;;;;;;;;;4925867;29;20032;-77
2022/04/18 02:49:40;;;;;;;0.25;0.25;;;;;;;;;;4936795;29;20621;-77
2022/04/18 02:52:05;;;;;;;0.00;0.00;;;;;;;;;;4937473;29;20020;-76
2022/04/18 02:54:31;;;;;;;1.13;1.10;;;;;;;;;;4936315;29;20340;-77
2022/04/18 02:56:56;;;;;;;0.22;0.22;;;;;;;;;;4937369;29;20039;-77
2022/04/18 02:59:26;;;;;;;0.88;0.88;;;;;;;;;;4938039;29;20457;-74
2022/04/18 03:01:54;;;;;;;0.38;0.35;;;;;;;;;;4937160;29;20042;-74
2022/04/18 03:04:21;;;;;;;0.10;0.10;;;;;;;;;;4933833;29;20031;-75
2022/04/18 03:06:49;;;;;;;0.20;0.20;;;;;;;;;;4937648;29;20039;-75
2022/04/18 03:09:15;;;;;;;0.45;0.45;;;;;;;;;;4937404;29;20334;-75
2022/04/18 03:11:40;;;;;;;2.17;0.35;;;;;;;;;;4934742;29;20032;-75
2022/04/18 03:14:06;;;;;;;0.10;0.10;;;;;;;;;;4936882;29;20024;-75
2022/04/18 03:16:34;;;;;;;1.45;1.35;;;;;;;;;;4937512;29;20023;-75
2022/04/18 03:18:59;;;;;;;0.40;0.40;;;;;;;;;;4936909;29;20034;-75
2022/04/18 03:21:27;;;;;;;0.52;0.32;;;;;;;;;;4936362;29;20024;-75
2022/04/18 03:23:53;;;;;;;0.20;0.20;;;;;;;;;;4936520;29;20062;-76
2022/04/18 03:26:19;;;;;;;0.40;0.40;;;;;;;;;;4936050;29;20152;-76
2022/04/18 03:28:44;;;;;;;0.60;0.60;;;;;;;;;;4917423;29;20530;-75
2022/04/18 03:31:09;;;;;;;0.00;0.00;;;;;;;;;;4935843;29;20106;-75
2022/04/18 03:33:38;;;;;;;0.17;0.10;;;;;;;;;;4936287;29;20032;-78
2022/04/18 03:41:38;;;;;;;0.10;0.10;;;;;;;;;;4936439;29;20054;-77
2022/04/18 03:44:06;;;;;;;0.35;0.30;;;;;;;;;;4937183;29;20031;-77
2022/04/18 03:46:31;;;;;;;0.03;0.03;;;;;;;;;;4937173;29;20345;-77
2022/04/18 03:48:57;;;;;;;0.00;0.00;;;;;;;;;;4936792;29;20091;-78
2022/04/18 03:51:22;;;;;;;0.55;0.50;;;;;;;;;;4935482;29;20535;-77
2022/04/18 03:53:47;;;;;;;0.70;0.40;;;;;;;;;;4936307;29;20641;-77
2022/04/18 03:56:13;;;;;;;0.85;0.35;;;;;;;;;;4937130;29;20394;-78
2022/04/18 03:58:38;;;;;;;0.32;0.10;;;;;;;;;;4930572;29;20036;-78
2022/04/18 04:01:08;;;;;;;0.17;0.17;;;;;;;;;;4929865;29;20389;-78
2022/04/18 04:03:33;;;;;;;0.10;0.10;;;;;;;;;;4936772;29;20075;-77
2022/04/18 04:05:59;;;;;;;0.38;0.10;;;;;;;;;;4936059;29;20027;-78
2022/04/18 04:08:24;;;;;;;0.00;0.00;;;;;;;;;;4934572;29;20028;-78
2022/04/18 04:10:50;;;;;;;1.27;0.50;;;;;;;;;;4934682;29;20082;-78
2022/04/18 04:13:21;;;;;;;0.20;0.10;;;;;;;;;;4935807;29;20027;-77
2022/04/18 04:15:49;;;;;;;0.10;0.10;;;;;;;;;;4935901;29;20103;-78
2022/04/18 04:18:14;;;;;;;0.22;0.22;;;;;;;;;;4937045;29;20051;-79
2022/04/18 04:20:40;;;;;;;0.10;0.10;;;;;;;;;;4935644;29;20059;-77
2022/04/18 04:23:05;;;;;;;0.80;0.22;;;;;;;;;;4934836;29;20365;-77
2022/04/18 04:25:31;;;;;;;2.63;1.17;;;;;;;;;;4936313;29;20024;-77
2022/04/18 04:27:56;;;;;;;0.10;0.10;;;;;;;;;;4947389;29;20122;-77
2022/04/18 04:30:21;;;;;;;0.15;0.15;;;;;;;;;;4932496;29;20094;-77
2022/04/18 04:32:50;;;;;;;0.30;0.30;;;;;;;;;;4918117;29;20028;-77
2022/04/18 04:35:16;;;;;;;0.85;0.85;;;;;;;;;;4923332;29;20059;-77
2022/04/18 04:37:41;;;;;;;0.00;0.00;;;;;;;;;;4936247;29;20023;-78
2022/04/18 04:40:08;;;;;;;0.17;0.17;;;;;;;;;;4936981;29;20023;-78
2022/04/18 04:42:36;;;;;;;0.17;0.17;;;;;;;;;;4936850;29;20035;-78
2022/04/18 04:45:01;;;;;;;0.20;0.17;;;;;;;;;;4936892;29;20020;-77
2022/04/18 04:47:27;;;;;;;0.30;0.30;;;;;;;;;;4936837;29;20031;-78
2022/04/18 04:49:55;;;;;;;0.10;0.10;;;;;;;;;;4936976;29;20102;-78
2022/04/18 04:52:20;;;;;;;0.25;0.10;;;;;;;;;;4930821;29;20020;-78
2022/04/18 04:54:46;;;;;;;0.30;0.30;;;;;;;;;;4925634;29;20368;-77
2022/04/18 04:57:13;;;;;;;0.00;0.00;;;;;;;;;;4936007;29;20087;-78
2022/04/18 04:59:43;;;;;;;0.77;0.77;;;;;;;;;;4936771;29;20319;-78
2022/04/18 05:02:11;;;;;;;0.10;0.10;;;;;;;;;;4936615;29;20437;-78
2022/04/18 05:04:36;;;;;;;0.73;0.30;;;;;;;;;;4928300;29;20034;-78
2022/04/18 05:07:02;;;;;;;2.08;0.98;;;;;;;;;;4936920;29;20118;-78
2022/04/18 05:09:30;;;;;;;0.30;0.30;;;;;;;;;;4938910;29;20039;-78
2022/04/18 05:11:55;;;;;;;0.00;0.00;;;;;;;;;;4939980;29;20307;-77
2022/04/18 05:14:20;;;;;;;0.77;0.63;;;;;;;;;;4937880;29;20031;-78
2022/04/18 05:16:49;;;;;;;0.13;0.13;;;;;;;;;;4939887;29;20097;-78
2022/04/18 05:19:16;;;;;;;0.00;0.00;;;;;;;;;;4936419;29;20032;-78
2022/04/18 05:21:42;;;;;;;0.10;0.10;;;;;;;;;;4939788;29;20027;-77
2022/04/18 05:24:09;;;;;;;0.95;0.20;;;;;;;;;;4938644;29;20140;-78
2022/04/18 05:26:39;;;;;;;0.20;0.20;;;;;;;;;;4938430;29;20461;-78
2022/04/18 05:29:07;;;;;;;1.38;0.95;;;;;;;;;;4939573;29;20035;-77
2022/04/18 05:31:36;;;;;;;1.35;1.00;;;;;;;;;;4933710;29;20466;-78
2022/04/18 05:34:02;;;;;;;0.32;0.30;;;;;;;;;;4938830;29;20052;-77
2022/04/18 05:36:27;;;;;;;0.10;0.10;;;;;;;;;;4905089;29;20450;-78
2022/04/18 05:38:52;;;;;;;4.80;0.32;;;;;;;;;;4921097;29;20429;-78
2022/04/18 05:41:18;;;;;;;0.00;0.00;;;;;;;;;;4921875;29;20036;-78
2022/04/18 05:43:43;;;;;;;0.93;0.90;;;;;;;;;;4939793;29;20032;-78
2022/04/18 05:46:08;;;;;;;0.52;0.52;;;;;;;;;;4937423;29;20390;-78
2022/04/18 05:48:33;;;;;;;0.38;0.38;;;;;;;;;;4937429;29;21468;-77
2022/04/18 05:51:01;;;;;;;0.50;0.43;;;;;;;;;;4939131;29;20382;-77
2022/04/18 05:53:27;;;;;;;0.32;0.30;;;;;;;;;;4939643;29;20368;-77
2022/04/18 05:55:52;;;;;;;0.15;0.15;;;;;;;;;;4937470;29;20115;-74
2022/04/18 05:58:18;;;;;;;0.75;0.75;;;;;;;;;;4937332;29;20037;-75
2022/04/18 06:00:43;;;;;;;0.60;0.32;;;;;;;;;;4938947;29;20500;-74
2022/04/18 06:03:08;;;;;;;0.30;0.30;;;;;;;;;;4937693;29;20032;-74
2022/04/18 06:05:36;;;;;;;5.57;1.77;;;;;;;;;;4938793;29;20063;-77
2022/04/18 06:08:03;;;;;;;0.40;0.40;;;;;;;;;;4938740;29;20020;-77
2022/04/18 06:10:28;;;;;;;0.28;0.20;;;;;;;;;;4937720;29;20035;-77
2022/04/18 06:12:54;;;;;;;0.40;0.38;;;;;;;;;;4939444;29;20393;-77
2022/04/18 06:15:22;;;;;;;0.28;0.20;;;;;;;;;;4938145;29;20059;-77
2022/04/18 06:17:50;;;;;;;0.22;0.22;;;;;;;;;;4937379;29;20031;-78
2022/04/18 06:20:15;;;;;;;0.20;0.15;;;;;;;;;;4924070;29;20363;-77
2022/04/18 06:22:40;;;;;;;4.28;0.55;;;;;;;;;;4921620;29;20024;-77
2022/04/18 06:25:06;;;;;;;0.10;0.10;;;;;;;;;;4937052;29;20043;-80
2022/04/18 06:27:34;;;;;;;0.20;0.20;;;;;;;;;;4936419;29;20446;-78
2022/04/18 06:30:01;;;;;;;0.05;0.03;;;;;;;;;;4938973;29;20031;-78
2022/04/18 06:32:27;;;;;;;0.32;0.32;;;;;;;;;;4939255;29;20066;-76
2022/04/18 06:34:53;;;;;;;0.93;0.65;;;;;;;;;;4938343;29;20031;-76
2022/04/18 06:37:20;;;;;;;1.13;0.65;;;;;;;;;;4938434;29;20039;-76
2022/04/18 06:39:46;;;;;;;0.73;0.73;;;;;;;;;;4938093;29;20030;-76
2022/04/18 06:42:11;;;;;;;0.17;0.17;;;;;;;;;;4938058;29;20032;-75
2022/04/18 06:44:37;;;;;;;0.10;0.10;;;;;;;;;;4938339;29;20467;-76
2022/04/18 06:47:04;;;;;;;1.85;0.70;;;;;;;;;;4938011;29;20346;-76
2022/04/18 06:49:30;;;;;;;2.10;0.55;;;;;;;;;;4938181;29;20028;-76
2022/04/18 06:51:58;;;;;;;0.57;0.40;;;;;;;;;;4937552;29;20531;-77
2022/04/18 06:54:23;;;;;;;0.95;0.70;;;;;;;;;;4936221;29;20031;-76
2022/04/18 06:57:01;;;;;;;0.70;0.40;;;;;;;;;;4936737;29;20043;-77
2022/04/18 06:59:29;;;;;;;0.93;0.47;;;;;;;;;;4937570;29;20067;-77
2022/04/18 07:01:56;;;;;;;0.30;0.30;;;;;;;;;;4937898;29;20162;-76
2022/04/18 07:04:21;;;;;;;0.45;0.45;;;;;;;;;;4938641;29;20031;-77
2022/04/18 07:06:47;;;;;;;0.50;0.35;;;;;;;;;;4937602;29;20035;-77
2022/04/18 07:09:12;;;;;;;0.43;0.38;;;;;;;;;;4937422;29;20043;-77
2022/04/18 07:11:39;;;;;;;0.50;0.22;;;;;;;;;;4924384;29;20114;-77
2022/04/18 07:14:05;;;;;;;0.38;0.38;;;;;;;;;;4919561;29;20038;-78
2022/04/18 07:16:33;;;;;;;0.40;0.40;;;;;;;;;;4934045;29;20311;-77
2022/04/18 07:18:58;;;;;;;0.82;0.52;;;;;;;;;;4937478;29;20031;-77
2022/04/18 07:21:30;;;;;;;3.60;0.68;;;;;;;;;;4936906;29;20028;-77
2022/04/18 07:23:56;;;;;;;0.32;0.25;;;;;;;;;;4938314;29;20370;-78
2022/04/18 07:26:21;;;;;;;0.47;0.47;;;;;;;;;;4936586;29;20062;-78
2022/04/18 07:28:47;;;;;;;0.95;0.47;;;;;;;;;;4938100;29;20024;-77
2022/04/18 07:31:15;;;;;;;5.18;0.63;;;;;;;;;;4920424;29;20027;-78
2022/04/18 07:33:40;;;;;;;0.70;0.45;;;;;;;;;;4937430;29;20020;-77
2022/04/18 07:36:06;;;;;;;0.30;0.30;;;;;;;;;;4937811;29;20042;-77
2022/04/18 07:38:49;;;;;;;0.40;0.40;;;;;;;;;;4937059;29;20446;-77
2022/04/18 07:41:26;;;;;;;0.32;0.32;;;;;;;;;;4931201;29;20028;-77
2022/04/18 07:43:53;;;;;;;0.40;0.40;;;;;;;;;;4937710;29;20437;-77
2022/04/18 07:46:19;;;;;;;1.60;0.47;;;;;;;;;;4937185;29;20042;-77
2022/04/18 07:48:48;;;;;;;0.65;0.28;;;;;;;;;;4937777;29;20035;-76
2022/04/18 07:51:32;;;;;;;0.50;0.50;;;;;;;;;;4936348;29;20040;-78
2022/04/18 07:53:58;;;;;;;0.40;0.40;;;;;;;;;;4937908;29;20028;-77
2022/04/18 07:56:25;;;;;;;0.75;0.65;;;;;;;;;;4932325;29;20094;-78
2022/04/18 07:58:54;;;;;;;1.10;0.63;;;;;;;;;;4928869;29;20035;-79
2022/04/18 08:01:20;;;;;;;0.50;0.50;;;;;;;;;;4931893;29;20418;-77
2022/04/18 08:03:52;;;;;;;1.33;0.57;;;;;;;;;;4928421;29;20035;-79
2022/04/18 08:06:17;;;;;;;;;;;;;;;;;;4937534;29;20027;-79
2022/04/18 08:08:43;;;;;;;0.47;0.43;;;;;;;;;;4936561;29;19929;-78
2022/04/18 08:11:11;;;;;;;1.20;1.00;;;;;;;;;;4931087;29;20044;-76
2022/04/18 08:13:40;;;;;;;1.48;0.70;;;;;;;;;;4930095;29;21202;-77
2022/04/18 08:16:06;;;;;;;0.93;0.60;;;;;;;;;;4920690;29;20036;-79
2022/04/18 08:18:31;;;;;;;0.68;0.65;;;;;;;;;;4936538;29;20062;-78
2022/04/18 08:20:57;;;;;;;0.50;0.50;;;;;;;;;;4929767;29;20024;-78
2022/04/18 08:23:25;;;;;;;0.73;0.60;;;;;;;;;;4933567;29;20055;-79
2022/04/18 08:25:50;;;;;;;0.82;0.77;;;;;;;;;;4934542;29;20043;-79
2022/04/18 08:28:16;;;;;;;1.40;0.50;;;;;;;;;;4920788;29;20485;-79
2022/04/18 08:30:41;;;;;;;1.48;1.08;;;;;;;;;;4934396;29;20027;-78
2022/04/18 08:33:06;;;;;;;0.38;0.38;;;;;;;;;;4937106;29;20365;-78
2022/04/18 08:35:32;;;;;;;0.63;0.57;;;;;;;;;;4922622;29;20425;-79
2022/04/18 08:37:59;;;;;;;4.38;0.93;;;;;;;;;;4920286;29;20031;-79
2022/04/18 08:40:25;;;;;;;0.57;0.43;;;;;;;;;;4939766;29;20027;-76
2022/04/18 08:42:54;;;;;;;0.80;0.77;;;;;;;;;;4939282;29;20063;-78
2022/04/18 08:45:24;;;;;;;0.93;0.40;;;;;;;;;;4940356;29;20032;-78
2022/04/18 08:53:20;;;;;;;0.47;0.40;;;;;;;;;;4933854;29;20115;-78
2022/04/18 08:55:45;;;;;;;0.30;0.25;;;;;;;;;;4927514;29;20107;-78
2022/04/18 08:58:14;;;;;;;1.95;0.32;;;;;;;;;;4923927;29;20095;-78
2022/04/18 09:00:42;;;;;;;0.95;0.63;;;;;;;;;;4934781;29;20040;-78
2022/04/18 09:03:10;;;;;;;1.20;1.10;;;;;;;;;;4939675;29;20095;-78
2022/04/18 09:05:36;;;;;;;0.32;0.32;;;;;;;;;;4938974;29;20500;-78
2022/04/18 09:08:06;;;;;;;2.08;0.93;;;;;;;;;;4930295;29;20445;-79
2022/04/18 09:10:32;;;;;;;0.70;0.52;;;;;;;;;;4930598;29;20473;-78
2022/04/18 09:13:11;;;;;;;3.70;0.80;;;;;;;;;;4934282;29;20598;-79
2022/04/18 09:15:40;;;;;;;1.45;0.50;;;;;;;;;;4931603;29;20042;-79
2022/04/18 09:18:15;;;;;;;0.85;0.75;;;;;;;;;;4938895;29;20111;-79
2022/04/18 09:20:46;;;;;;;0.35;0.35;;;;;;;;;;4926833;29;20071;-78
2022/04/18 09:23:26;;;;;;;2.35;0.73;;;;;;;;;;4933770;29;20430;-78
2022/04/18 09:25:59;;;;;;;0.73;0.50;;;;;;;;;;4930810;29;20043;-78
2022/04/18 09:28:35;;;;;;;0.55;0.55;;;;;;;;;;4932556;29;20031;-78
2022/04/18 09:31:12;;;;;;;1.45;0.68;;;;;;;;;;4933125;29;20046;-78
2022/04/18 09:33:40;;;;;;;2.67;0.80;;;;;;;;;;4928895;29;20024;-79
2022/04/18 09:36:15;;;;;;;1.88;0.85;;;;;;;;;;4940023;29;20114;-79
2022/04/18 09:38:51;;;;;;;0.30;0.30;;;;;;;;;;4930908;29;20045;-79
2022/04/18 09:41:35;;;;;;;0.52;0.50;;;;;;;;;;4917926;29;20036;-79
2022/04/18 09:44:00;;;;;;;3.80;1.50;;;;;;;;;;4921685;29;20118;-79
2022/04/18 09:46:26;;;;;;;1.27;0.80;;;;;;;;;;4936624;29;20110;-78
2022/04/18 09:49:04;;;;;;;1.45;0.63;;;;;;;;;;4924084;29;20151;-80
2022/04/18 09:51:30;;;;;;;0.55;0.40;;;;;;;;;;4927893;29;20047;-79
2022/04/18 09:53:59;;;;;;;0.52;0.38;;;;;;;;;;4923184;29;20028;-79
2022/04/18 09:56:26;;;;;;;0.28;0.28;;;;;;;;;;4907914;29;20039;-80
2022/04/18 09:58:55;;;;;;;0.95;0.43;;;;;;;;;;4928216;29;20032;-79
2022/04/18 10:01:23;;;;;;;0.80;0.50;;;;;;;;;;4930999;29;20056;-80
2022/04/18 10:03:54;;;;;;;2.75;0.98;;;;;;;;;;4932637;29;20438;-79
2022/04/18 10:06:20;;;;;;;0.38;0.38;;;;;;;;;;4936038;29;20046;-77
2022/04/18 10:08:45;;;;;;;1.08;0.57;;;;;;;;;;4930709;29;20035;-78
2022/04/18 10:11:13;;;;;;;0.52;0.47;;;;;;;;;;4935167;29;20035;-77
2022/04/18 10:13:39;;;;;;;0.35;0.35;;;;;;;;;;4926657;29;20050;-77
2022/04/18 10:16:06;;;;;;;1.38;0.75;;;;;;;;;;4933294;29;20349;-76
2022/04/18 10:18:37;;;;;;;0.63;0.63;;;;;;;;;;4933104;29;20348;-78
2022/04/18 10:21:21;;;;;;;0.15;0.10;;;;;;;;;;4927662;29;20095;-77
2022/04/18 10:24:07;;;;;;;0.85;0.40;;;;;;;;;;4925743;29;20040;-76
2022/04/18 10:27:10;;;;;;;0.90;0.60;;;;;;;;;;4941743;29;20460;-77
2022/04/18 10:29:50;;;;;;;1.05;0.57;;;;;;;;;;4925153;29;20028;-77
2022/04/18 10:32:18;;;;;;;1.58;0.63;;;;;;;;;;4928647;29;20019;-77
2022/04/18 10:34:48;;;;;;;5.55;0.82;;;;;;;;;;4913794;29;20032;-77
2022/04/18 10:37:17;;;;;;;1.15;0.75;;;;;;;;;;4934945;29;20036;-77
2022/04/18 10:39:59;;;;;;;0.85;0.65;;;;;;;;;;4929810;29;20064;-76
2022/04/18 10:42:34;;;;;;;0.60;0.60;;;;;;;;;;4927272;29;20086;-76
2022/04/18 10:45:14;;;;;;;0.80;0.77;;;;;;;;;;4934812;29;20469;-76
2022/04/18 10:48:03;;;;;;;1.55;0.57;;;;;;;;;;4937682;29;20028;-75
2022/04/18 10:50:50;;;;;;;0.22;0.22;;;;;;;;;;4927669;29;20346;-77
2022/04/18 10:53:34;;;;;;;1.27;0.98;;;;;;;;;;4928438;29;20107;-76
2022/04/18 10:56:00;;;;;;;15.35;2.08;;;;;;;;;;4933727;29;20031;-77
2022/04/18 10:58:30;;;;;;;0.55;0.55;;;;;;;;;;4936933;29;20038;-79
2022/04/18 11:01:01;;;;;;;0.60;0.60;;;;;;;;;;4937590;29;20114;-79
2022/04/18 11:03:43;;;;;;;;;;;;;;;;;;4938818;29;20123;-79
2022/04/18 11:06:36;;;;;;;1.88;0.85;;;;;;;;;;4934635;29;20009;-78
2022/04/18 11:09:06;;;;;;;0.77;0.77;;;;;;;;;;4938274;29;20040;-78
2022/04/18 11:11:36;;;;;;;0.75;0.52;;;;;;;;;;4936310;29;20426;-78
2022/04/18 11:14:05;;;;;;;1.10;0.90;;;;;;;;;;4937455;29;20062;-78
2022/04/18 11:16:42;;;;;;;0.63;0.63;;;;;;;;;;4937447;29;20063;-78
2022/04/18 11:19:08;;;;;;;0.55;0.35;;;;;;;;;;4938156;29;20102;-78
2022/04/18 11:24:49;;;;;;;0.70;0.70;;;;;;;;;;4937790;29;20488;-78
2022/04/18 11:27:22;;;;;;;2.25;0.85;;;;;;;;;;4929297;29;20422;-79
2022/04/18 11:29:55;;;;;;;0.73;0.73;;;;;;;;;;4937194;29;20434;-79
2022/04/18 11:32:24;;;;;;;0.38;0.38;;;;;;;;;;4938242;29;20019;-79
2022/04/18 11:34:53;;;;;;;0.68;0.50;;;;;;;;;;4919255;29;20183;-79
2022/04/18 11:37:31;;;;;;;2.33;1.20;;;;;;;;;;4936470;29;20465;-78
2022/04/18 11:40:26;;;;;;;0.82;0.60;;;;;;;;;;4930375;29;20028;-78
2022/04/18 11:42:51;;;;;;;1.60;0.80;;;;;;;;;;4931332;29;20040;-79
2022/04/18 11:45:25;;;;;;;1.33;1.02;;;;;;;;;;4937477;29;20404;-78
2022/04/18 11:47:50;;;;;;;0.85;0.50;;;;;;;;;;4925771;29;20031;-78
2022/04/18 11:50:21;;;;;;;1.25;0.80;;;;;;;;;;4933536;29;20034;-77
2022/04/18 11:52:49;;;;;;;1.75;0.70;;;;;;;;;;4934247;29;20106;-78
2022/04/18 11:55:17;;;;;;;2.47;1.33;;;;;;;;;;4932524;29;20043;-78
2022/04/18 11:57:44;;;;;;;0.45;0.43;;;;;;;;;;4930454;29;20087;-78
2022/04/18 12:08:37;;;;;;;1.05;0.93;;;;;;;;;;4930669;29;20044;-78
2022/04/18 12:11:05;;;;;;;0.65;0.65;;;;;;;;;;4934098;29;20051;-78
2022/04/18 12:13:39;;;;;;;1.10;0.88;;;;;;;;;;4929285;29;20056;-77
2022/04/18 12:16:05;;;;;;;0.77;0.57;;;;;;;;;;4931399;29;20056;-77
2022/04/18 12:18:32;;;;;;;0.57;0.57;;;;;;;;;;4939632;29;20028;-77
2022/04/18 12:20:58;;;;;;;0.70;0.70;;;;;;;;;;4939939;29;20070;-77
2022/04/18 12:23:25;;;;;;;0.50;0.50;;;;;;;;;;4933716;29;20056;-79
2022/04/18 12:25:55;;;;;;;0.98;0.95;;;;;;;;;;4911214;29;20055;-78
2022/04/18 12:28:23;;;;;;;2.15;1.27;;;;;;;;;;4920108;29;20032;-80
2022/04/18 12:30:49;;;;;;;0.80;0.60;;;;;;;;;;4936695;29;20031;-79
2022/04/18 12:33:25;;;;;;;0.68;0.68;;;;;;;;;;4938360;29;20034;-81
2022/04/18 12:35:56;;;;;;;0.28;0.28;;;;;;;;;;4937126;29;20028;-79
2022/04/18 12:38:34;;;;;;;1.00;0.65;;;;;;;;;;4938510;29;20106;-78
2022/04/18 12:41:00;;;;;;;1.15;1.10;;;;;;;;;;4937603;29;20051;-78
2022/04/18 12:43:28;;;;;;;0.98;0.88;;;;;;;;;;4935444;29;20032;-78
2022/04/18 12:46:08;;;;;;;0.40;0.40;;;;;;;;;;4935944;29;20032;-78
2022/04/18 12:48:35;;;;;;;2.67;0.75;;;;;;;;;;4929093;29;20474;-76
2022/04/18 12:51:06;;;;;;;0.77;0.77;;;;;;;;;;4922826;29;20114;-79
2022/04/18 12:53:51;;;;;;;0.73;0.50;;;;;;;;;;4922491;29;20110;-78
2022/04/18 12:56:22;;;;;;;1.73;0.57;;;;;;;;;;4935316;29;20035;-79
2022/04/18 12:58:49;;;;;;;0.57;0.47;;;;;;;;;;4936981;29;20484;-79
2022/04/18 13:01:22;;;;;;;0.40;0.40;;;;;;;;;;4935967;29;20508;-78
2022/04/18 13:03:47;;;;;;;0.63;0.43;;;;;;;;;;4937397;29;20152;-78
2022/04/18 13:06:13;;;;;;;0.73;0.73;;;;;;;;;;4936023;29;20450;-78
2022/04/18 13:08:41;;;;;;;0.65;0.52;;;;;;;;;;4937111;29;20154;-79
2022/04/18 13:11:07;;;;;;;1.38;0.68;;;;;;;;;;4936934;29;20028;-79
2022/04/18 13:13:33;;;;;;;0.30;0.30;;;;;;;;;;4935953;29;20050;-79
2022/04/18 13:16:21;;;;;;;0.57;0.50;;;;;;;;;;4922338;29;20032;-79
2022/04/18 13:19:00;;;;;;;0.30;0.30;;;;;;;;;;4932854;29;20095;-78
2022/04/18 13:21:28;;;;;;;2.25;1.05;;;;;;;;;;4934911;29;20036;-78
2022/04/18 13:24:02;;;;;;;1.10;0.32;;;;;;;;;;4938109;28;20023;-78
2022/04/18 13:26:29;;;;;;;0.80;0.70;;;;;;;;;;4940291;29;20046;-78
2022/04/18 13:28:54;;;;;;;0.28;0.28;;;;;;;;;;4923921;29;20381;-78
2022/04/18 13:31:21;;;;;;;0.57;0.30;;;;;;;;;;4940147;29;20079;-78
2022/04/18 13:33:46;;;;;;;0.88;0.85;;;;;;;;;;4940260;29;20449;-77
2022/04/18 13:38:56;;;;;;;6.90;0.70;;;;;;;;;;4922769;29;20051;-79
2022/04/18 13:41:22;;;;;;;0.30;0.30;;;;;;;;;;4919794;29;20362;-80
2022/04/18 13:43:48;;;;;;;0.28;0.28;;;;;;;;;;4920480;29;20028;-79
2022/04/18 13:46:15;;;;;;;0.40;0.40;;;;;;;;;;4920921;29;20084;-79
2022/04/18 13:48:47;;;;;;;0.17;0.17;;;;;;;;;;4920175;29;20434;-79
2022/04/18 13:51:15;;;;;;;0.17;0.17;;;;;;;;;;4924884;29;20035;-79
2022/04/18 13:53:40;;;;;;;0.45;0.45;;;;;;;;;;4938977;29;20090;-79
2022/04/18 13:56:06;;;;;;;16.73;0.50;;;;;;;;;;4940044;29;20028;-79
2022/04/18 13:58:32;;;;;;;0.50;0.50;;;;;;;;;;4938694;29;20032;-79
2022/04/18 14:00:58;;;;;;;1.15;0.43;;;;;;;;;;4939536;29;20051;-79
2022/04/18 14:03:26;;;;;;;0.35;0.35;;;;;;;;;;4938638;29;20070;-79
2022/04/18 14:05:56;;;;;;;0.30;0.20;;;;;;;;;;4938979;29;20095;-78
2022/04/18 14:08:25;;;;;;;0.10;0.10;;;;;;;;;;4937820;29;20039;-77
2022/04/18 14:10:50;;;;;;;2.63;1.13;;;;;;;;;;4939359;29;20094;-79
2022/04/18 14:13:16;;;;;;;0.17;0.17;;;;;;;;;;4940475;29;20023;-77
2022/04/18 14:21:10;;;;;;;1.20;0.60;;;;;;;;;;4939114;29;20545;-77
2022/04/18 14:23:35;;;;;;;0.77;0.45;;;;;;;;;;4939400;29;20105;-77
2022/04/18 14:26:01;;;;;;;0.32;0.32;;;;;;;;;;4939204;29;20421;-78
2022/04/18 14:28:26;;;;;;;0.30;0.30;;;;;;;;;;4939136;29;20133;-78
2022/04/18 14:30:51;;;;;;;0.15;0.15;;;;;;;;;;4939117;29;20032;-78
2022/04/18 14:33:19;;;;;;;0.20;0.20;;;;;;;;;;4939096;29;20032;-77
2022/04/18 14:35:44;;;;;;;0.17;0.17;;;;;;;;;;4936177;29;20085;-77
2022/04/18 14:38:14;;;;;;;0.25;0.25;;;;;;;;;;4919385;29;20028;-77
2022/04/18 14:40:40;;;;;;;0.10;0.10;;;;;;;;;;4920060;29;20564;-78
2022/04/18 14:43:05;;;;;;;0.28;0.28;;;;;;;;;;4919147;29;20028;-77
2022/04/18 14:45:32;;;;;;;0.30;0.30;;;;;;;;;;4928229;29;20170;-77
2022/04/18 14:47:59;;;;;;;0.20;0.20;;;;;;;;;;4937796;29;20319;-79
2022/04/18 14:50:25;;;;;;;1.85;0.77;;;;;;;;;;4938974;29;20032;-79
2022/04/18 14:52:50;;;;;;;0.30;0.30;;;;;;;;;;4931915;29;20023;-78
2022/04/18 14:55:18;;;;;;;0.47;0.47;;;;;;;;;;4938708;29;20066;-78
2022/04/18 14:57:43;;;;;;;0.85;0.45;;;;;;;;;;4937359;29;20039;-79
2022/04/18 15:00:14;;;;;;;0.57;0.40;;;;;;;;;;4937667;29;20038;-78
2022/04/18 15:02:43;;;;;;;0.43;0.43;;;;;;;;;;4938264;29;20130;-79
2022/04/18 15:05:09;;;;;;;0.25;0.25;;;;;;;;;;4937913;29;20070;-78
2022/04/18 15:07:34;;;;;;;0.10;0.10;;;;;;;;;;4938126;29;20059;-79
2022/04/18 15:10:00;;;;;;;0.22;0.22;;;;;;;;;;4936994;29;20103;-79
2022/04/18 15:12:28;;;;;;;0.20;0.20;;;;;;;;;;4938402;29;20071;-80
2022/04/18 15:14:54;;;;;;;0.60;0.45;;;;;;;;;;4938914;29;20480;-80
2022/04/18 15:17:19;;;;;;;0.20;0.20;;;;;;;;;;4938014;29;20027;-79
2022/04/18 15:19:44;;;;;;;1.15;0.70;;;;;;;;;;4938920;29;20090;-79
2022/04/18 15:22:10;;;;;;;0.52;0.25;;;;;;;;;;4937599;29;20035;-79
2022/04/18 15:24:37;;;;;;;1.00;0.50;;;;;;;;;;4922000;29;20038;-78
2022/04/18 15:27:06;;;;;;;0.32;0.32;;;;;;;;;;4938244;29;20035;-79
2022/04/18 15:29:32;;;;;;;0.45;0.43;;;;;;;;;;4938522;29;20023;-79